Anza, California
Current Conditions -  °F | °C
As of 8:53 PM on Monday 20 Oct 2014 (Local Time) from KPSP Reporting Station
Clear Clear  
Wind Chill: 83°   Ceiling: Unl
Heat Index: 83°   Visibility: 10mi
Dew Point: 53°   Wind: 5mph
Humidity: 36%   Direction: 290°WNW
Pressure: 29.81"   Gusts: NA
Location:  33.55°N, 116.67°W
Report Text: KPSP 210353Z 29004KT 10SM CLR 28/12 A2981 RMK AO2 SLP091 T02830117
Loading
Personal Weather Stations






























Interactive Weather Map New forecast layout! Learn more

10-Day Weather Forecast

Advertisements
Track Severe Weather on mobile